Pagina principale
METAR-TAF:

METAR-TAF

Aeroporti :

Cannes, Francia

latitudine: 43-33N, longitudine: 006-57E, altezza: 3 m

Osservazione

Il bollettino è stato emesso 20 minuti fa, alle 13:30 UTC
Vento 13 kt da ovest/nord-ovest con raffiche fino a 24 kt, variando fra ovest/sud-ovest e nord/nord-ovest
Temperature 26°C
Umidità 23%
Pressione 998 hPa
Visibilità 10 km o più
nessuna nube inferiore a 1500 m e nessun cumulonembo

METAR: LFMD 271330Z AUTO 29013G24KT 250V340 CAVOK 26/03 Q0998 NOSIG

Ora: 15:50 (13:50 UTC)

Previsione

Il bollettino è stato emesso 5 ore e 50 minuti fa, alle 08:00 UTC
Previsione valida dal 27 alle 09 UTC al 28 alle 09 UTC
Vento 17 kt da ovest con raffiche fino a 30 kt
Visibilità 10 km o più
nessuna nube inferiore a 1500 m e nessun cumulonembo
Evoluzione graduale
dal 27 alle 09 UTC al 27 alle 11 UTC
Vento 12 kt da ovest

TAF: LFMD 270800Z 2709/2809 27017G30KT CAVOK BECMG 2709/2711 26012KT

Osservazioni e previsioni meteorologiche di più di 4000 aeroporti (messaggi METAR e TAF).

Le stazioni disponibili sono rappresentate dai dischi gialli e rossi sulla carta.

Puntare il mouse per vedere il nome della stazione.

Clicca sopra per visualizzare le osservazioni e previsioni meteorologiche.

Per cambiare la mappa : fare clic sui pulsanti verdi con una croce nera per ingrandire, il pulsante verde con un trattino per diminuire, o sulla freccia verde per le mappe adiacenti.


METAR-TAF: